Adel, Georgia
Current Conditions -  °F | °C
As of 3:58 AM on Saturday 25 Oct 2014 (Local Time) from KVAD Reporting Station
Clear Clear  
Wind Chill:   Ceiling: Unl
Heat Index:   Visibility: 10mi
Dew Point:   Wind: 3mph
Humidity: 92%   Direction: 30°NNE
Pressure: 29.99"   Gusts: NA
Location:  31.14°N, 83.42°W
Report Text: KVAD 250758Z AUTO 03003KT 10SM CLR 08/07 A2999 RMK AO2 SLP157 T00840072 $
Loading
Personal Weather Stations






























Interactive Weather Map
Tropical Storm Tracking
New forecast layout! Learn more

10-Day Weather Forecast

Advertisements
Track Severe Weather on mobile